createdAt,value
2022-12-18T03:13:22.313Z,-0.96
2022-12-18T04:28:06.870Z,-1.13
2022-12-18T04:35:29.850Z,-1.13
2022-12-18T04:45:22.395Z,-1.14
2022-12-18T04:55:24.881Z,-1.18
2022-12-18T05:12:28.313Z,-1.13
2022-12-18T05:15:54.374Z,-1.12
2022-12-18T05:19:06.010Z,-1.18
2022-12-18T05:22:25.163Z,-1.14
2022-12-18T05:33:23.604Z,-1.21
2022-12-18T05:37:20.437Z,-1.19
2022-12-18T05:51:21.757Z,-1.18
2022-12-18T06:02:10.003Z,-1.19
2022-12-18T06:05:25.692Z,-1.24
2022-12-18T06:09:05.475Z,-1.23
2022-12-18T06:23:28.817Z,-1.15
2022-12-18T06:27:38.560Z,-1.17
2022-12-18T06:31:12.734Z,-1.28
2022-12-18T06:34:57.596Z,-1.16
2022-12-18T06:37:54.920Z,-1.22
2022-12-18T06:43:56.851Z,-1.28
2022-12-18T06:46:55.592Z,-1.20
2022-12-18T06:49:57.675Z,-1.23
2022-12-18T06:52:55.540Z,-1.22
2022-12-18T06:55:54.695Z,-1.25
2022-12-18T06:58:50.007Z,-1.24
2022-12-18T07:01:44.522Z,-1.18
2022-12-18T07:04:31.968Z,-1.24
2022-12-18T07:07:18.994Z,-1.19
2022-12-18T07:10:09.301Z,-1.18
2022-12-18T07:12:58.380Z,-1.21
2022-12-18T07:15:47.765Z,-1.17
2022-12-18T07:18:35.935Z,-1.17
2022-12-18T07:21:28.263Z,-1.21
2022-12-18T07:24:21.703Z,-1.18
2022-12-18T07:27:11.462Z,-1.22
2022-12-18T07:30:14.271Z,-1.19
2022-12-18T07:33:07.377Z,-1.18
2022-12-18T07:35:54.316Z,-1.21
2022-12-18T07:38:41.653Z,-1.20
2022-12-18T07:41:29.915Z,-1.18
2022-12-18T07:44:16.902Z,-1.25
2022-12-18T07:47:12.153Z,-1.21
2022-12-18T07:49:59.247Z,-1.26
2022-12-18T07:52:51.396Z,-1.22
2022-12-18T07:55:59.889Z,-1.24
2022-12-18T07:58:54.035Z,-1.24
2022-12-18T08:01:46.432Z,-1.22
2022-12-18T08:04:36.803Z,-1.29
2022-12-18T08:07:26.713Z,-1.21
2022-12-18T08:10:13.944Z,-1.22
2022-12-18T08:13:04.851Z,-1.24
2022-12-18T08:16:08.053Z,-1.24
2022-12-18T08:19:00.979Z,-1.27
2022-12-18T08:21:53.398Z,-1.23
2022-12-18T08:24:40.339Z,-1.24
2022-12-18T08:27:29.718Z,-1.24
2022-12-18T08:30:22.800Z,-1.32
2022-12-18T08:33:16.300Z,-1.33
2022-12-18T08:36:04.923Z,-1.27
2022-12-18T08:38:59.380Z,-1.31
2022-12-18T08:42:13.959Z,-1.27
2022-12-18T08:45:13.268Z,-1.27
2022-12-18T08:48:03.280Z,-1.24
2022-12-18T08:51:00.022Z,-1.26
2022-12-18T08:53:51.113Z,-1.33
2022-12-18T08:56:45.196Z,-1.29
2022-12-18T08:59:32.305Z,-1.33
2022-12-18T09:02:22.210Z,-1.28
2022-12-18T09:05:09.461Z,-1.24
2022-12-18T09:08:04.791Z,-1.25
2022-12-18T09:17:17.695Z,-1.29
2022-12-18T09:20:37.769Z,-1.32
2022-12-18T09:23:47.689Z,-1.30
2022-12-18T09:55:39.302Z,-1.31
2022-12-18T12:11:39.052Z,-1.10
2022-12-18T13:58:14.306Z,-0.99
2022-12-18T14:24:40.392Z,-1.05
2022-12-18T14:35:16.446Z,-1.02
2022-12-18T14:57:01.457Z,-1.05
2022-12-18T15:01:09.141Z,-1.04
2022-12-18T15:23:29.877Z,-0.96
2022-12-18T15:27:40.030Z,-1.04
2022-12-18T15:31:47.193Z,-0.97
2022-12-18T15:35:17.009Z,-0.96
2022-12-18T15:38:04.630Z,-0.98
2022-12-18T15:40:53.930Z,-1.00
2022-12-18T15:47:52.587Z,-1.06
2022-12-18T15:51:37.137Z,-1.05
2022-12-18T15:55:36.149Z,-1.03
2022-12-18T17:02:39.980Z,-1.21
2022-12-18T17:05:35.685Z,-1.18
2022-12-18T17:09:58.024Z,-1.18
2022-12-18T17:21:41.875Z,-1.26
2022-12-18T17:29:26.233Z,-1.38
2022-12-18T17:44:48.620Z,-1.40
2022-12-18T17:51:01.064Z,-1.41
2022-12-18T17:59:53.161Z,-1.44
2022-12-18T22:25:50.545Z,-2.04
2022-12-18T22:28:56.222Z,-2.11
2022-12-18T22:31:45.275Z,-2.08
2022-12-18T22:34:36.833Z,-2.06
2022-12-18T22:37:32.701Z,-2.06
2022-12-18T22:40:38.357Z,-2.07
2022-12-18T22:43:34.719Z,-2.08
2022-12-18T22:46:22.021Z,-2.03
2022-12-18T22:49:18.713Z,-2.04
2022-12-18T22:52:06.711Z,-2.10
2022-12-18T22:54:57.240Z,-2.05
2022-12-18T22:57:48.800Z,-2.05
2022-12-18T23:00:46.310Z,-2.11
2022-12-18T23:03:34.360Z,-2.08
2022-12-18T23:06:32.237Z,-2.07
2022-12-18T23:09:23.680Z,-2.06
2022-12-18T23:12:18.412Z,-2.05
2022-12-18T23:15:08.372Z,-2.05
2022-12-18T23:17:56.620Z,-2.04
2022-12-18T23:20:46.107Z,-2.05
2022-12-18T23:23:36.007Z,-2.10
2022-12-18T23:26:27.200Z,-2.04
2022-12-18T23:29:17.872Z,-2.08
2022-12-18T23:32:10.776Z,-2.12
2022-12-18T23:35:02.969Z,-2.10
2022-12-18T23:37:59.491Z,-2.08
2022-12-18T23:40:46.668Z,-2.14
2022-12-18T23:43:35.389Z,-2.09
2022-12-18T23:46:27.452Z,-2.06
2022-12-18T23:49:21.068Z,-2.08
2022-12-18T23:52:16.691Z,-2.12
2022-12-18T23:55:06.252Z,-2.13
2022-12-18T23:57:56.115Z,-2.08
